Athol, Idaho
Current Conditions -  °F | °C
As of 11:15 PM on Thursday 30 Oct 2014 (Local Time) from KSZT Reporting Station
Clear Clear  
Wind Chill: 40°   Ceiling: Unl
Heat Index: 46°   Visibility: 10mi
Dew Point: 45°   Wind: 16mph
Humidity: 93%   Direction: 30°NNE
Pressure: 29.86"   Gusts: NA
Location:  47.95°N, 116.71°W
Report Text: KSZT 310615Z AUTO 03014KT 10SM CLR 08/07 A2986 RMK AO2
Loading
Personal Weather Stations






























Interactive Weather Map
Tropical Storm Tracking
New forecast layout! Learn more

10-Day Weather Forecast

Advertisements
Track Severe Weather on mobile